createdAt,value
2018-09-24T00:00:19.497Z,22.38
2018-09-24T00:02:45.379Z,22.38
2018-09-24T00:05:11.452Z,22.38
2018-09-24T00:07:37.509Z,22.37
2018-09-24T00:10:03.452Z,22.35
2018-09-24T00:12:29.404Z,22.37
2018-09-24T00:14:55.367Z,22.37
2018-09-24T00:17:21.320Z,22.38
2018-09-24T00:19:47.311Z,22.38
2018-09-24T00:22:13.264Z,22.38
2018-09-24T00:24:39.210Z,22.37
2018-09-24T00:27:05.168Z,22.37
2018-09-24T00:29:31.151Z,22.36
2018-09-24T00:31:57.124Z,22.36
2018-09-24T00:34:23.105Z,22.35
2018-09-24T00:36:49.050Z,22.36
2018-09-24T00:39:15.007Z,22.34
2018-09-24T00:41:40.970Z,22.35
2018-09-24T00:44:07.021Z,22.36
2018-09-24T00:46:32.985Z,22.35
2018-09-24T00:48:58.927Z,22.34
2018-09-24T00:51:24.999Z,22.34
2018-09-24T00:53:50.980Z,22.32
2018-09-24T00:56:16.927Z,22.35
2018-09-24T00:58:43.124Z,22.33
2018-09-24T01:01:09.089Z,22.34
2018-09-24T01:03:35.031Z,22.35
2018-09-24T01:06:00.995Z,22.35
2018-09-24T01:08:26.962Z,22.33
2018-09-24T01:10:52.926Z,22.33
2018-09-24T01:13:18.869Z,22.34
2018-09-24T01:15:44.998Z,22.32
2018-09-24T01:18:10.936Z,22.32
2018-09-24T01:20:36.901Z,22.32
2018-09-24T01:23:02.955Z,22.32
2018-09-24T01:25:28.919Z,22.32
2018-09-24T01:27:54.869Z,22.31
2018-09-24T01:30:20.818Z,22.31
2018-09-24T01:32:46.775Z,22.30
2018-09-24T01:35:12.749Z,22.29
2018-09-24T01:37:38.687Z,22.30
2018-09-24T01:40:04.660Z,22.31
2018-09-24T01:42:30.615Z,22.31
2018-09-24T01:44:56.565Z,22.32
2018-09-24T01:47:22.536Z,22.31
2018-09-24T01:49:48.479Z,22.30
2018-09-24T01:52:14.419Z,22.31
2018-09-24T01:54:40.360Z,22.32
2018-09-24T01:57:06.328Z,22.31
2018-09-24T01:59:32.281Z,22.29
2018-09-24T02:01:58.219Z,22.29
2018-09-24T02:04:24.164Z,22.28
2018-09-24T02:06:50.139Z,22.28
2018-09-24T02:09:16.086Z,22.28
2018-09-24T02:11:42.064Z,22.29
2018-09-24T02:14:08.010Z,22.28
2018-09-24T02:16:33.957Z,22.29
2018-09-24T02:18:59.927Z,22.27
2018-09-24T02:21:25.901Z,22.28
2018-09-24T02:23:51.839Z,22.26
2018-09-24T02:26:17.803Z,22.27
2018-09-24T02:28:43.779Z,22.26
2018-09-24T02:31:09.769Z,22.27
2018-09-24T02:33:35.724Z,22.26
2018-09-24T02:36:01.760Z,22.26
2018-09-24T02:38:27.726Z,22.29
2018-09-24T02:40:53.680Z,22.28
2018-09-24T02:43:19.616Z,22.24
2018-09-24T02:45:45.600Z,22.25
2018-09-24T02:48:11.535Z,22.25
2018-09-24T02:50:37.491Z,22.25
2018-09-24T02:53:03.648Z,22.25
2018-09-24T02:55:29.726Z,22.24
2018-09-24T02:57:55.748Z,22.25
2018-09-24T03:00:21.698Z,22.24
2018-09-24T03:02:47.652Z,22.24
2018-09-24T03:05:13.613Z,22.24
2018-09-24T03:07:39.595Z,22.21
2018-09-24T03:10:05.624Z,22.22
2018-09-24T03:12:31.605Z,22.22
2018-09-24T03:14:57.540Z,22.23
2018-09-24T03:17:23.488Z,22.23
2018-09-24T03:19:49.509Z,22.24
2018-09-24T03:22:15.465Z,22.24
2018-09-24T03:24:41.408Z,22.22
2018-09-24T03:27:07.352Z,22.24
2018-09-24T03:29:33.300Z,22.22
2018-09-24T03:31:59.362Z,22.23
2018-09-24T03:34:25.307Z,22.23
2018-09-24T03:36:51.356Z,22.22
2018-09-24T03:39:17.388Z,22.22
2018-09-24T03:41:43.667Z,22.21
2018-09-24T03:44:09.864Z,22.21
2018-09-24T03:46:35.808Z,22.21
2018-09-24T03:49:01.772Z,22.20
2018-09-24T03:51:27.723Z,22.20
2018-09-24T03:53:53.699Z,22.21
2018-09-24T03:56:19.641Z,22.20
2018-09-24T03:58:45.736Z,22.19
2018-09-24T04:01:11.645Z,22.20
2018-09-24T04:03:37.619Z,22.20
2018-09-24T04:06:03.604Z,22.19
2018-09-24T04:08:29.556Z,22.19
2018-09-24T04:10:55.568Z,22.19
2018-09-24T04:13:21.459Z,22.16
2018-09-24T04:15:47.455Z,22.18
2018-09-24T04:18:13.404Z,22.18
2018-09-24T04:20:39.355Z,22.18
2018-09-24T04:23:05.384Z,22.19
2018-09-24T04:25:31.324Z,22.19
2018-09-24T04:27:57.284Z,22.17
2018-09-24T04:30:23.234Z,22.19
2018-09-24T04:32:49.191Z,22.16
2018-09-24T04:35:15.173Z,22.14
2018-09-24T04:37:41.124Z,22.16
2018-09-24T04:40:07.096Z,22.16
2018-09-24T04:42:33.045Z,22.15
2018-09-24T04:44:58.999Z,22.14
2018-09-24T04:47:24.956Z,22.14
2018-09-24T04:49:50.920Z,22.14
2018-09-24T04:52:16.878Z,22.15
2018-09-24T04:54:42.823Z,22.16
2018-09-24T04:57:08.773Z,22.15
2018-09-24T04:59:34.721Z,22.16
2018-09-24T05:02:00.687Z,22.15
2018-09-24T05:04:26.627Z,22.16
2018-09-24T05:06:52.585Z,22.14
2018-09-24T05:09:18.532Z,22.13
2018-09-24T05:11:44.661Z,22.13
2018-09-24T05:14:10.636Z,22.11
2018-09-24T05:16:36.637Z,22.12
2018-09-24T05:19:02.571Z,22.12
2018-09-24T05:21:28.542Z,22.10
2018-09-24T05:23:54.512Z,22.10
2018-09-24T05:26:20.487Z,22.11
2018-09-24T05:28:46.468Z,22.09
2018-09-24T05:31:12.441Z,22.11
2018-09-24T05:33:38.389Z,22.12
2018-09-24T05:36:04.334Z,22.11
2018-09-24T05:38:30.288Z,22.10
2018-09-24T05:40:56.231Z,22.12
2018-09-24T05:43:22.183Z,22.12
2018-09-24T05:45:48.127Z,22.11
2018-09-24T05:48:14.068Z,22.11
2018-09-24T05:50:40.044Z,22.11
2018-09-24T05:53:05.972Z,22.10
2018-09-24T05:55:31.984Z,22.10
2018-09-24T05:57:57.960Z,22.10
2018-09-24T06:00:23.903Z,22.10
2018-09-24T06:02:49.883Z,22.09
2018-09-24T06:05:15.829Z,22.08
2018-09-24T06:07:41.833Z,22.08
2018-09-24T06:10:07.776Z,22.08
2018-09-24T06:12:33.829Z,22.08
2018-09-24T06:14:59.784Z,22.06
2018-09-24T06:17:25.736Z,22.07
2018-09-24T06:19:51.687Z,22.08
2018-09-24T06:22:17.662Z,22.08
2018-09-24T06:24:43.628Z,22.08
2018-09-24T06:27:09.567Z,22.09
2018-09-24T06:29:35.531Z,22.08
2018-09-24T06:32:01.504Z,22.09
2018-09-24T06:34:27.449Z,22.09
2018-09-24T06:36:53.395Z,22.08
2018-09-24T06:39:19.407Z,22.08
2018-09-24T06:41:45.368Z,22.07
2018-09-24T06:44:11.389Z,22.07
2018-09-24T06:46:37.754Z,22.05
2018-09-24T06:49:03.703Z,22.04
2018-09-24T06:51:29.680Z,22.07
2018-09-24T06:53:55.711Z,22.06
2018-09-24T06:56:21.788Z,22.07
2018-09-24T06:58:47.775Z,22.05
2018-09-24T07:01:13.725Z,22.05
2018-09-24T07:03:39.739Z,22.05
2018-09-24T07:06:05.745Z,22.04
2018-09-24T07:08:31.787Z,22.05
2018-09-24T07:10:57.725Z,22.07
2018-09-24T07:13:24.764Z,22.06
2018-09-24T07:15:50.711Z,22.07
2018-09-24T07:18:16.663Z,22.06
2018-09-24T07:20:42.617Z,22.08
2018-09-24T07:23:08.571Z,22.07
2018-09-24T07:25:34.526Z,22.07
2018-09-24T07:28:00.499Z,22.09
2018-09-24T07:30:26.456Z,22.09
2018-09-24T07:32:52.414Z,22.09
2018-09-24T07:35:18.365Z,22.10
2018-09-24T07:37:44.342Z,22.11
2018-09-24T07:40:10.333Z,22.13
2018-09-24T07:42:36.296Z,22.14
2018-09-24T07:45:02.244Z,22.14
2018-09-24T07:47:28.199Z,22.11
2018-09-24T07:49:54.151Z,22.12
2018-09-24T07:52:20.107Z,22.12
2018-09-24T07:54:46.208Z,22.10
2018-09-24T07:57:12.157Z,22.04
2018-09-24T07:59:38.110Z,22.07
2018-09-24T08:02:04.124Z,22.09
2018-09-24T08:04:30.091Z,22.09
2018-09-24T08:06:56.047Z,22.12
2018-09-24T08:09:22.009Z,22.11
2018-09-24T08:11:47.975Z,22.13
2018-09-24T08:14:13.949Z,22.14
2018-09-24T08:16:39.939Z,22.15
2018-09-24T08:19:05.876Z,22.16
2018-09-24T08:21:31.849Z,22.16
2018-09-24T08:23:57.791Z,22.14
2018-09-24T08:26:23.748Z,22.14
2018-09-24T08:28:49.721Z,22.12
2018-09-24T08:31:15.655Z,22.14
2018-09-24T08:33:41.619Z,22.14
2018-09-24T08:36:07.644Z,22.14
2018-09-24T08:38:33.557Z,22.15
2018-09-24T08:40:59.608Z,22.14
2018-09-24T08:43:25.568Z,22.12
2018-09-24T08:45:51.516Z,22.13
2018-09-24T08:48:17.492Z,22.14
2018-09-24T08:50:43.435Z,22.15
2018-09-24T08:53:09.544Z,22.14
2018-09-24T08:55:35.484Z,22.15
2018-09-24T08:58:01.452Z,22.14
2018-09-24T09:00:27.395Z,22.15
2018-09-24T09:02:53.430Z,22.16
2018-09-24T09:05:19.394Z,22.16
2018-09-24T09:07:45.376Z,22.16
2018-09-24T09:10:11.357Z,22.17
2018-09-24T09:12:37.299Z,22.14
2018-09-24T09:15:03.258Z,22.15
2018-09-24T09:17:29.279Z,22.15
2018-09-24T09:19:55.228Z,22.16
2018-09-24T09:22:21.179Z,22.16
2018-09-24T09:24:47.264Z,22.17
2018-09-24T09:27:13.220Z,22.18
2018-09-24T09:29:39.181Z,22.19
2018-09-24T09:32:05.136Z,22.19
2018-09-24T09:34:31.094Z,22.20
2018-09-24T09:36:57.060Z,22.20
2018-09-24T09:39:23.023Z,22.20
2018-09-24T09:41:49.061Z,22.21
2018-09-24T09:44:15.053Z,22.22
2018-09-24T09:46:41.015Z,22.20
2018-09-24T09:49:06.985Z,22.14
2018-09-24T09:51:32.960Z,22.16
2018-09-24T09:53:58.917Z,22.19
2018-09-24T09:56:24.855Z,22.16
2018-09-24T09:58:50.819Z,22.14
2018-09-24T10:01:16.764Z,22.15
2018-09-24T10:03:42.801Z,22.16
2018-09-24T10:06:08.746Z,22.17
2018-09-24T10:08:34.766Z,22.15
2018-09-24T10:11:00.743Z,22.15
2018-09-24T10:13:33.256Z,22.14
2018-09-24T10:15:59.225Z,22.17
2018-09-24T10:18:25.174Z,22.17
2018-09-24T10:20:51.144Z,22.17
2018-09-24T10:23:17.103Z,22.17
2018-09-24T10:25:43.045Z,22.15
2018-09-24T10:28:09.016Z,22.18
2018-09-24T10:30:34.977Z,22.17
2018-09-24T10:33:00.935Z,22.16
2018-09-24T10:35:26.896Z,22.16
2018-09-24T10:37:52.871Z,22.16
2018-09-24T10:40:18.843Z,22.16
2018-09-24T10:42:44.801Z,22.16
2018-09-24T10:45:10.751Z,22.17
2018-09-24T10:47:36.715Z,22.17
2018-09-24T10:50:02.665Z,22.16
2018-09-24T10:52:28.612Z,22.17
2018-09-24T10:54:54.561Z,22.18
2018-09-24T10:57:21.228Z,22.14
2018-09-24T10:59:47.200Z,22.16
2018-09-24T11:02:13.147Z,22.17
2018-09-24T11:04:39.144Z,22.17
2018-09-24T11:07:05.062Z,22.17
2018-09-24T11:09:31.104Z,22.16
2018-09-24T11:11:57.059Z,22.17
2018-09-24T11:14:23.043Z,22.16
2018-09-24T11:16:49.197Z,22.12
2018-09-24T11:19:14.951Z,22.08
2018-09-24T11:21:40.909Z,22.09
2018-09-24T11:24:06.861Z,22.13
2018-09-24T11:28:58.767Z,22.14
2018-09-24T11:31:24.724Z,22.15
2018-09-24T11:33:50.676Z,22.14
2018-09-24T11:36:16.655Z,22.15
2018-09-24T11:38:42.616Z,22.14
2018-09-24T11:41:08.554Z,22.14
2018-09-24T11:43:34.592Z,22.14
2018-09-24T11:46:00.557Z,22.13
2018-09-24T11:48:26.519Z,22.16
2018-09-24T11:50:52.499Z,22.17
2018-09-24T11:53:18.542Z,22.18
2018-09-24T11:55:44.489Z,22.17
2018-09-24T11:58:10.440Z,22.17
2018-09-24T12:00:36.388Z,22.18
2018-09-24T12:03:02.324Z,22.18
2018-09-24T12:05:28.291Z,22.16
2018-09-24T12:07:54.235Z,22.17
2018-09-24T12:10:20.188Z,22.17
2018-09-24T12:12:46.148Z,22.17
2018-09-24T12:15:12.101Z,22.15
2018-09-24T12:17:38.072Z,22.14
2018-09-24T12:20:04.122Z,22.15
2018-09-24T12:22:30.110Z,22.16
2018-09-24T12:24:56.080Z,22.16
2018-09-24T12:27:22.031Z,22.16
2018-09-24T12:29:48.001Z,22.18
2018-09-24T12:32:13.979Z,22.19
2018-09-24T12:34:39.983Z,22.20
2018-09-24T12:37:05.953Z,22.21
2018-09-24T12:39:31.928Z,22.21
2018-09-24T12:41:57.892Z,22.20
2018-09-24T12:44:23.863Z,22.21
2018-09-24T12:46:49.809Z,22.21
2018-09-24T12:49:15.752Z,22.20
2018-09-24T12:51:41.748Z,22.20
2018-09-24T12:54:07.684Z,22.20
2018-09-24T12:56:33.636Z,22.18
2018-09-24T12:58:59.628Z,22.19
2018-09-24T13:01:25.563Z,22.23
2018-09-24T13:03:51.505Z,22.24
2018-09-24T13:06:17.467Z,22.24
2018-09-24T13:08:43.435Z,22.23
2018-09-24T13:11:09.384Z,22.24
2018-09-24T13:13:35.351Z,22.26
2018-09-24T13:16:01.327Z,22.24
2018-09-24T13:18:27.302Z,22.26
2018-09-24T13:20:53.260Z,22.28
2018-09-24T13:23:19.454Z,22.28
2018-09-24T13:25:45.415Z,22.25
2018-09-24T13:28:12.236Z,22.26
2018-09-24T13:30:38.205Z,22.23
2018-09-24T13:33:04.162Z,22.22
2018-09-24T13:35:30.104Z,22.25
2018-09-24T13:37:56.057Z,22.25
2018-09-24T13:40:22.002Z,22.23
2018-09-24T13:42:48.144Z,22.24
2018-09-24T13:45:14.177Z,22.22
2018-09-24T13:47:40.073Z,22.22
2018-09-24T13:50:06.119Z,22.23
2018-09-24T13:52:32.076Z,22.23
2018-09-24T13:54:58.023Z,22.24
2018-09-24T13:57:23.980Z,22.24
2018-09-24T13:59:49.928Z,22.27
2018-09-24T14:02:15.905Z,22.27
2018-09-24T14:04:41.892Z,22.27
2018-09-24T14:07:07.852Z,22.28
2018-09-24T14:09:33.817Z,22.28
2018-09-24T14:11:59.952Z,22.28
2018-09-24T14:14:25.907Z,22.25
2018-09-24T14:16:51.879Z,22.24
2018-09-24T14:19:17.872Z,22.25
2018-09-24T14:21:43.866Z,22.25
2018-09-24T14:24:09.815Z,22.24
2018-09-24T14:26:35.788Z,22.24
2018-09-24T14:29:01.891Z,22.24
2018-09-24T14:31:27.956Z,22.25
2018-09-24T14:33:53.932Z,22.25
2018-09-24T14:36:19.889Z,22.25
2018-09-24T14:38:45.935Z,22.25
2018-09-24T14:41:11.894Z,22.28
2018-09-24T14:43:37.870Z,22.26
2018-09-24T14:46:03.811Z,22.28
2018-09-24T14:48:29.800Z,22.29
2018-09-24T14:50:55.763Z,22.28
2018-09-24T14:53:21.719Z,22.30
2018-09-24T14:55:47.702Z,22.30
2018-09-24T14:58:13.668Z,22.28
2018-09-24T15:00:39.628Z,22.27
2018-09-24T15:03:05.592Z,22.26
2018-09-24T15:05:31.639Z,22.25
2018-09-24T15:07:57.600Z,22.25
2018-09-24T15:10:23.572Z,22.24
2018-09-24T15:12:49.521Z,22.23
2018-09-24T15:15:15.483Z,22.23
2018-09-24T15:17:41.503Z,22.23
2018-09-24T15:20:07.456Z,22.23
2018-09-24T15:22:33.434Z,22.22
2018-09-24T15:24:59.384Z,22.23
2018-09-24T15:27:25.371Z,22.22
2018-09-24T15:29:51.317Z,22.22
2018-09-24T15:32:17.294Z,22.26
2018-09-24T15:34:43.245Z,22.23
2018-09-24T15:37:09.212Z,22.25
2018-09-24T15:39:35.127Z,22.25
2018-09-24T15:42:01.085Z,22.23
2018-09-24T15:44:27.073Z,22.20
2018-09-24T15:46:53.035Z,22.20
2018-09-24T15:49:19.054Z,22.20
2018-09-24T15:51:45.029Z,22.20
2018-09-24T15:54:10.985Z,22.21
2018-09-24T15:56:36.947Z,22.20
2018-09-24T15:59:02.894Z,22.19
2018-09-24T16:01:28.837Z,22.19
2018-09-24T16:03:54.798Z,22.19
2018-09-24T16:06:20.748Z,22.20
2018-09-24T16:08:46.719Z,22.19
2018-09-24T16:11:12.679Z,22.19
2018-09-24T16:13:38.629Z,22.20
2018-09-24T16:16:04.631Z,22.20
2018-09-24T16:18:30.595Z,22.21
2018-09-24T16:20:56.584Z,22.21
2018-09-24T16:23:22.547Z,22.20
2018-09-24T16:25:48.535Z,22.19
2018-09-24T16:28:14.480Z,22.20
2018-09-24T16:30:40.482Z,22.18
2018-09-24T16:33:06.435Z,22.19
2018-09-24T16:35:32.366Z,22.17
2018-09-24T16:37:58.320Z,22.19
2018-09-24T16:40:24.317Z,22.17
2018-09-24T16:42:50.266Z,22.18
2018-09-24T16:45:16.240Z,22.17
2018-09-24T16:47:42.199Z,22.16
2018-09-24T16:50:08.158Z,22.17
2018-09-24T16:52:34.126Z,22.17
2018-09-24T16:55:00.072Z,22.17
2018-09-24T16:57:26.052Z,22.17
2018-09-24T16:59:52.004Z,22.18
2018-09-24T17:02:18.129Z,22.19
2018-09-24T17:04:44.091Z,22.18
2018-09-24T17:07:10.136Z,22.17
2018-09-24T17:09:36.119Z,22.18
2018-09-24T17:12:02.098Z,22.18
2018-09-24T17:14:28.045Z,22.17
2018-09-24T17:16:54.039Z,22.16
2018-09-24T17:19:20.004Z,22.17
2018-09-24T17:21:45.973Z,22.15
2018-09-24T17:24:11.933Z,22.18
2018-09-24T17:26:37.880Z,22.16
2018-09-24T17:29:03.895Z,22.17
2018-09-24T17:31:29.801Z,22.14
2018-09-24T17:33:55.758Z,22.15
2018-09-24T17:36:22.213Z,22.14
2018-09-24T17:38:48.295Z,22.12
2018-09-24T17:41:14.250Z,22.14
2018-09-24T17:43:40.216Z,22.13
2018-09-24T17:46:06.242Z,22.14
2018-09-24T17:48:32.167Z,22.15
2018-09-24T17:50:58.256Z,22.15
2018-09-24T17:53:24.445Z,22.16
2018-09-24T17:55:50.383Z,22.14
2018-09-24T17:58:16.462Z,22.12
2018-09-24T18:00:42.480Z,22.12
2018-09-24T18:03:08.428Z,22.11
2018-09-24T18:05:34.336Z,22.11
2018-09-24T18:08:00.424Z,22.14
2018-09-24T18:10:26.386Z,22.13
2018-09-24T18:12:52.337Z,22.11
2018-09-24T18:15:18.364Z,22.11
2018-09-24T18:17:44.383Z,22.12
2018-09-24T18:20:10.380Z,22.11
2018-09-24T18:22:36.356Z,22.09
2018-09-24T18:25:02.366Z,22.09
2018-09-24T18:27:28.312Z,22.10
2018-09-24T18:29:54.258Z,22.10
2018-09-24T18:32:20.297Z,22.09
2018-09-24T18:34:46.276Z,22.11
2018-09-24T18:37:12.342Z,22.11
2018-09-24T18:39:38.203Z,22.10
2018-09-24T18:42:04.159Z,22.10
2018-09-24T18:44:30.100Z,22.10
2018-09-24T18:46:56.089Z,22.10
2018-09-24T18:49:22.048Z,22.10
2018-09-24T18:51:48.000Z,22.11
2018-09-24T18:54:13.955Z,22.11
2018-09-24T18:56:39.911Z,22.11
2018-09-24T18:59:05.899Z,22.10
2018-09-24T19:01:31.965Z,22.09
2018-09-24T19:03:57.958Z,22.09
2018-09-24T19:06:23.925Z,22.08
2018-09-24T19:08:49.876Z,22.07
2018-09-24T19:11:15.890Z,22.09
2018-09-24T19:13:41.848Z,22.09
2018-09-24T19:16:07.857Z,22.07
2018-09-24T19:18:33.887Z,22.07
2018-09-24T19:20:59.806Z,22.08
2018-09-24T19:23:25.753Z,22.09
2018-09-24T19:25:51.764Z,22.07
2018-09-24T19:28:17.708Z,22.07
2018-09-24T19:30:43.714Z,22.08
2018-09-24T19:33:09.700Z,22.08
2018-09-24T19:35:35.673Z,22.07
2018-09-24T19:38:01.666Z,22.00
2018-09-24T19:40:27.636Z,22.01
2018-09-24T19:42:53.655Z,22.04
2018-09-24T19:45:19.694Z,22.04
2018-09-24T19:47:45.648Z,22.04
2018-09-24T19:50:11.612Z,22.05
2018-09-24T19:52:37.616Z,22.04
2018-09-24T19:55:03.810Z,22.03
2018-09-24T19:57:29.820Z,22.03
2018-09-24T19:59:55.752Z,22.02
2018-09-24T20:02:21.713Z,22.03
2018-09-24T20:04:47.761Z,22.04
2018-09-24T20:07:13.731Z,22.06
2018-09-24T20:09:39.677Z,22.00
2018-09-24T20:12:05.632Z,21.93
2018-09-24T20:14:31.577Z,21.94
2018-09-24T20:16:57.601Z,21.98
2018-09-24T20:19:23.510Z,22.00
2018-09-24T20:21:49.493Z,21.99
2018-09-24T20:24:15.457Z,22.01
2018-09-24T20:26:41.471Z,22.01
2018-09-24T20:29:07.423Z,22.02
2018-09-24T20:31:33.498Z,22.01
2018-09-24T20:34:00.770Z,22.02
2018-09-24T20:36:26.807Z,22.02
2018-09-24T20:38:52.752Z,22.02
2018-09-24T20:41:18.721Z,21.97
2018-09-24T20:43:44.689Z,22.01
2018-09-24T20:46:10.691Z,22.01
2018-09-24T20:48:36.602Z,22.02
2018-09-24T20:51:02.637Z,22.03
2018-09-24T20:53:28.590Z,22.03
2018-09-24T20:55:54.537Z,22.02
2018-09-24T20:58:20.508Z,22.05
2018-09-24T21:00:46.583Z,22.05
2018-09-24T21:03:12.522Z,22.07
2018-09-24T21:05:38.481Z,22.07
2018-09-24T21:08:04.449Z,22.09
2018-09-24T21:10:30.473Z,22.08
2018-09-24T21:12:56.437Z,22.09
2018-09-24T21:15:22.591Z,22.08
2018-09-24T21:17:48.909Z,22.05
2018-09-24T21:20:15.116Z,22.01
2018-09-24T21:22:41.358Z,21.98
2018-09-24T21:25:07.588Z,21.95
2018-09-24T21:27:33.621Z,21.93
2018-09-24T21:29:59.783Z,21.90
2018-09-24T21:32:25.767Z,21.90
2018-09-24T21:34:51.709Z,21.89
2018-09-24T21:37:17.686Z,21.90
2018-09-24T21:39:43.754Z,21.87
2018-09-24T21:42:09.720Z,21.87
2018-09-24T21:44:35.710Z,21.86
2018-09-24T21:47:01.769Z,21.84
2018-09-24T21:49:27.751Z,21.84
2018-09-24T21:51:53.703Z,21.85
2018-09-24T21:54:19.662Z,21.82
2018-09-24T21:56:45.604Z,21.80
2018-09-24T21:59:11.561Z,21.79
2018-09-24T22:01:37.519Z,21.77
2018-09-24T22:04:03.457Z,21.77
2018-09-24T22:06:29.407Z,21.76
2018-09-24T22:08:55.395Z,21.74
2018-09-24T22:11:21.351Z,21.74
2018-09-24T22:13:47.317Z,21.72
2018-09-24T22:16:13.424Z,21.72
2018-09-24T22:18:39.372Z,21.72
2018-09-24T22:21:05.347Z,21.70
2018-09-24T22:23:31.433Z,21.71
2018-09-24T22:25:57.344Z,21.70
2018-09-24T22:28:23.297Z,21.70
2018-09-24T22:30:49.354Z,21.70
2018-09-24T22:33:15.296Z,21.68
2018-09-24T22:35:41.285Z,21.68
2018-09-24T22:38:07.235Z,21.69
2018-09-24T22:40:33.195Z,21.66
2018-09-24T22:42:59.152Z,21.70
2018-09-24T22:45:25.372Z,21.68
2018-09-24T22:47:51.408Z,21.68
2018-09-24T22:50:17.348Z,21.68
2018-09-24T22:52:43.385Z,21.68
2018-09-24T22:55:09.367Z,21.69
2018-09-24T22:57:35.341Z,21.70
2018-09-24T23:00:01.281Z,21.70
2018-09-24T23:02:27.304Z,21.71
2018-09-24T23:04:53.262Z,21.70
2018-09-24T23:07:19.236Z,21.69
2018-09-24T23:09:45.187Z,21.70
2018-09-24T23:12:11.188Z,21.73
2018-09-24T23:14:37.144Z,21.71
2018-09-24T23:17:03.104Z,21.72
2018-09-24T23:19:29.053Z,21.71
2018-09-24T23:21:55.011Z,21.71
2018-09-24T23:24:20.997Z,21.71
2018-09-24T23:26:47.045Z,21.73
2018-09-24T23:29:12.988Z,21.72
2018-09-24T23:31:38.948Z,21.72
2018-09-24T23:34:04.975Z,21.73
2018-09-24T23:36:30.937Z,21.74
2018-09-24T23:38:56.906Z,21.72
2018-09-24T23:41:22.849Z,21.72
2018-09-24T23:43:48.825Z,21.71
2018-09-24T23:46:14.796Z,21.73
2018-09-24T23:48:40.738Z,21.73
2018-09-24T23:51:06.692Z,21.73
2018-09-24T23:53:32.637Z,21.74
2018-09-24T23:55:58.786Z,21.73
2018-09-24T23:58:24.723Z,21.74
